createdAt,value
2024-03-03T00:02:00.588Z,11.18
2024-03-03T00:04:27.275Z,11.12
2024-03-03T00:06:53.787Z,11.11
2024-03-03T00:09:21.973Z,11.15
2024-03-03T00:11:48.498Z,11.08
2024-03-03T00:14:15.687Z,11.07
2024-03-03T00:16:43.068Z,11.12
2024-03-03T00:19:10.150Z,11.10
2024-03-03T00:21:36.681Z,11.09
2024-03-03T00:24:03.541Z,11.04
2024-03-03T00:26:32.119Z,11.02
2024-03-03T00:28:58.633Z,11.00
2024-03-03T00:31:25.216Z,10.95
2024-03-03T00:33:51.795Z,10.97
2024-03-03T00:36:18.299Z,10.94
2024-03-03T00:38:44.845Z,10.94
2024-03-03T00:41:11.960Z,10.95
2024-03-03T00:43:38.679Z,10.96
2024-03-03T00:46:06.454Z,10.97
2024-03-03T00:48:33.014Z,10.95
2024-03-03T00:50:59.434Z,10.89
2024-03-03T00:53:26.627Z,10.84
2024-03-03T00:55:53.431Z,10.81
2024-03-03T00:58:21.407Z,10.76
2024-03-03T01:00:47.963Z,10.70
2024-03-03T01:03:14.901Z,10.72
2024-03-03T01:05:41.360Z,10.73
2024-03-03T01:08:07.863Z,10.67
2024-03-03T01:10:34.414Z,10.63
2024-03-03T01:13:01.182Z,10.60
2024-03-03T01:15:27.650Z,10.52
2024-03-03T01:17:54.242Z,10.41
2024-03-03T01:20:20.722Z,10.31
2024-03-03T01:22:47.277Z,10.25
2024-03-03T01:25:13.876Z,10.16
2024-03-03T01:27:40.434Z,10.06
2024-03-03T01:30:07.459Z,9.93
2024-03-03T01:32:34.281Z,9.81
2024-03-03T01:35:00.850Z,9.77
2024-03-03T01:37:27.420Z,9.71
2024-03-03T01:39:54.752Z,9.58
2024-03-03T01:42:21.340Z,9.53
2024-03-03T01:44:48.262Z,9.49
2024-03-03T01:47:15.106Z,9.43
2024-03-03T01:49:46.251Z,9.39
2024-03-03T01:52:13.272Z,9.32
2024-03-03T01:54:39.951Z,9.19
2024-03-03T01:57:12.968Z,9.09
2024-03-03T01:59:41.606Z,9.06
2024-03-03T02:02:08.282Z,9.04
2024-03-03T02:04:35.854Z,9.02
2024-03-03T02:07:02.980Z,8.99
2024-03-03T02:09:29.527Z,8.94
2024-03-03T02:11:57.222Z,8.94
2024-03-03T02:14:23.698Z,8.94
2024-03-03T02:16:50.256Z,8.96
2024-03-03T02:19:18.440Z,8.96
2024-03-03T02:21:45.444Z,8.95
2024-03-03T02:24:12.026Z,8.94
2024-03-03T02:26:38.613Z,8.84
2024-03-03T02:29:06.319Z,8.78
2024-03-03T02:31:33.717Z,8.71
2024-03-03T02:34:00.360Z,8.62
2024-03-03T02:36:27.025Z,8.60
2024-03-03T02:38:53.714Z,8.60
2024-03-03T02:41:20.694Z,8.52
2024-03-03T02:43:47.281Z,8.41
2024-03-03T02:46:14.972Z,8.35
2024-03-03T02:48:41.916Z,8.24
2024-03-03T02:51:08.460Z,8.16
2024-03-03T02:53:35.078Z,8.15
2024-03-03T02:56:01.677Z,8.18
2024-03-03T02:58:29.725Z,8.21
2024-03-03T03:00:56.391Z,8.14
2024-03-03T03:03:22.961Z,8.09
2024-03-03T03:05:49.500Z,8.07
2024-03-03T03:08:15.991Z,8.04
2024-03-03T03:10:42.565Z,8.06
2024-03-03T03:13:09.180Z,8.06
2024-03-03T03:15:37.426Z,8.11
2024-03-03T03:18:07.769Z,8.13
2024-03-03T03:20:35.503Z,8.13
2024-03-03T03:23:02.100Z,8.10
2024-03-03T03:25:28.643Z,8.08
2024-03-03T03:27:55.153Z,8.01
2024-03-03T03:30:21.931Z,8.00
2024-03-03T03:32:48.380Z,7.99
2024-03-03T03:35:14.981Z,7.94
2024-03-03T03:37:41.570Z,7.94
2024-03-03T03:40:11.284Z,7.95
2024-03-03T03:42:38.197Z,7.92
2024-03-03T03:45:05.228Z,7.90
2024-03-03T03:47:35.014Z,7.89
2024-03-03T03:50:01.585Z,7.80
2024-03-03T03:52:29.015Z,7.77
2024-03-03T03:54:55.574Z,7.78
2024-03-03T03:57:22.186Z,7.80
2024-03-03T03:59:48.605Z,7.78
2024-03-03T04:02:15.068Z,7.78
2024-03-03T04:04:41.572Z,7.76
2024-03-03T04:07:08.213Z,7.71
2024-03-03T04:09:34.909Z,7.72
2024-03-03T04:12:01.442Z,7.75
2024-03-03T04:14:28.041Z,7.74
2024-03-03T04:16:54.508Z,7.76
2024-03-03T04:19:21.019Z,7.81
2024-03-03T04:21:47.677Z,7.85
2024-03-03T04:24:15.069Z,7.88
2024-03-03T04:26:43.374Z,7.93
2024-03-03T04:29:09.827Z,7.99
2024-03-03T04:31:43.809Z,8.06
2024-03-03T04:34:11.299Z,8.19
2024-03-03T04:36:38.314Z,8.07
2024-03-03T04:39:05.457Z,7.96
2024-03-03T04:41:32.267Z,7.86
2024-03-03T04:43:58.741Z,7.87
2024-03-03T04:46:25.294Z,7.86
2024-03-03T04:48:51.815Z,7.85
2024-03-03T04:51:18.837Z,7.90
2024-03-03T04:53:45.850Z,8.00
2024-03-03T04:56:12.308Z,7.94
2024-03-03T04:58:39.003Z,7.91
2024-03-03T05:01:05.656Z,7.88
2024-03-03T05:03:32.157Z,7.77
2024-03-03T05:05:58.639Z,7.74
2024-03-03T05:08:25.133Z,7.70
2024-03-03T05:10:52.139Z,7.63
2024-03-03T05:13:18.727Z,7.57
2024-03-03T05:15:45.340Z,7.54
2024-03-03T05:18:11.810Z,7.59
2024-03-03T05:20:38.596Z,7.50
2024-03-03T05:23:05.191Z,7.47
2024-03-03T05:25:31.656Z,7.45
2024-03-03T05:27:58.148Z,7.43
2024-03-03T05:30:24.822Z,7.43
2024-03-03T05:32:52.292Z,7.40
2024-03-03T05:35:18.913Z,7.39
2024-03-03T05:37:45.360Z,7.36
2024-03-03T05:40:12.094Z,7.33
2024-03-03T05:42:38.780Z,7.30
2024-03-03T05:45:06.861Z,7.24
2024-03-03T05:47:33.421Z,7.21
2024-03-03T05:50:00.005Z,7.26
2024-03-03T05:52:26.580Z,7.30
2024-03-03T05:54:53.280Z,7.37
2024-03-03T05:57:19.724Z,7.39
2024-03-03T05:59:46.447Z,7.41
2024-03-03T06:02:13.004Z,7.42
2024-03-03T06:04:39.514Z,7.43
2024-03-03T06:07:06.076Z,7.45
2024-03-03T06:09:32.751Z,7.43
2024-03-03T06:12:03.732Z,7.44
2024-03-03T06:14:30.203Z,7.53
2024-03-03T06:16:57.357Z,7.61
2024-03-03T06:19:23.985Z,7.62
2024-03-03T06:21:51.961Z,7.65
2024-03-03T06:24:19.567Z,7.67
2024-03-03T06:26:46.554Z,7.76
2024-03-03T06:29:13.143Z,7.86
2024-03-03T06:31:45.111Z,8.00
2024-03-03T06:34:11.779Z,8.16
2024-03-03T06:36:38.626Z,8.35
2024-03-03T06:39:05.995Z,8.45
2024-03-03T06:41:32.522Z,8.61
2024-03-03T06:43:59.055Z,8.70
2024-03-03T06:46:25.674Z,8.81
2024-03-03T06:48:52.262Z,9.05
2024-03-03T06:51:18.777Z,9.26
2024-03-03T06:53:45.247Z,9.41
2024-03-03T06:56:16.256Z,9.52
2024-03-03T06:58:44.416Z,9.75
2024-03-03T07:01:11.689Z,9.81
2024-03-03T07:04:07.026Z,9.85
2024-03-03T07:06:34.907Z,9.87
2024-03-03T07:09:01.914Z,9.67
2024-03-03T07:11:28.540Z,9.46
2024-03-03T07:13:55.148Z,9.06
2024-03-03T07:16:21.794Z,8.92
2024-03-03T07:18:48.383Z,8.89
2024-03-03T07:21:14.983Z,8.96
2024-03-03T07:23:41.741Z,9.01
2024-03-03T07:26:08.365Z,9.13
2024-03-03T07:28:34.879Z,9.30
2024-03-03T07:31:01.458Z,9.37
2024-03-03T07:33:28.220Z,9.59
2024-03-03T07:35:54.957Z,9.77
2024-03-03T07:38:21.706Z,9.95
2024-03-03T07:40:48.217Z,9.82
2024-03-03T07:43:15.880Z,9.78
2024-03-03T07:45:42.481Z,9.69
2024-03-03T07:48:09.095Z,9.64
2024-03-03T07:50:35.581Z,9.74
2024-03-03T07:53:02.123Z,9.73
2024-03-03T07:55:30.662Z,9.70
2024-03-03T07:57:57.656Z,9.84
2024-03-03T08:00:24.271Z,9.97
2024-03-03T08:02:50.762Z,10.16
2024-03-03T08:05:17.243Z,10.41
2024-03-03T08:07:43.748Z,10.56
2024-03-03T08:10:10.428Z,10.64
2024-03-03T08:12:36.969Z,10.81
2024-03-03T08:15:03.660Z,10.86
2024-03-03T08:17:30.299Z,10.87
2024-03-03T08:19:56.923Z,10.83
2024-03-03T08:22:23.531Z,10.86
2024-03-03T08:24:50.028Z,10.97
2024-03-03T08:27:16.542Z,11.05
2024-03-03T08:29:43.183Z,11.13
2024-03-03T08:32:09.617Z,11.19
2024-03-03T08:34:36.108Z,11.32
2024-03-03T08:37:02.630Z,11.28
2024-03-03T08:39:29.626Z,11.32
2024-03-03T08:41:56.257Z,11.34
2024-03-03T08:44:24.125Z,11.30
2024-03-03T08:46:52.248Z,11.39
2024-03-03T08:49:19.178Z,11.19
2024-03-03T08:51:45.827Z,11.22
2024-03-03T08:54:12.539Z,11.35
2024-03-03T08:56:39.108Z,11.41
2024-03-03T08:59:05.739Z,11.54
2024-03-03T09:01:32.384Z,11.58
2024-03-03T09:03:58.984Z,11.66
2024-03-03T09:06:25.483Z,11.92
2024-03-03T09:08:52.187Z,12.08
2024-03-03T09:11:18.706Z,12.13
2024-03-03T09:13:45.249Z,12.27
2024-03-03T09:16:14.777Z,12.43
2024-03-03T09:18:41.584Z,12.62
2024-03-03T09:21:09.169Z,12.65
2024-03-03T09:23:36.131Z,12.98
2024-03-03T09:26:02.806Z,13.14
2024-03-03T09:28:29.447Z,13.33
2024-03-03T09:30:56.121Z,13.47
2024-03-03T09:33:22.703Z,13.68
2024-03-03T09:35:49.207Z,13.91
2024-03-03T09:38:15.739Z,14.02
2024-03-03T09:40:44.418Z,14.25
2024-03-03T09:43:15.899Z,14.51
2024-03-03T09:45:42.400Z,14.67
2024-03-03T09:48:09.723Z,14.99
2024-03-03T09:50:36.487Z,14.99
2024-03-03T09:53:04.045Z,15.06
2024-03-03T09:55:31.368Z,15.35
2024-03-03T09:57:58.302Z,15.49
2024-03-03T10:00:27.390Z,15.73
2024-03-03T10:02:55.323Z,15.87
2024-03-03T10:05:23.958Z,15.98
2024-03-03T10:07:56.326Z,16.12
2024-03-03T10:10:28.287Z,16.22
2024-03-03T10:12:56.209Z,16.34
2024-03-03T10:15:24.082Z,16.61
2024-03-03T10:17:51.696Z,16.56
2024-03-03T10:20:18.345Z,16.61
2024-03-03T10:22:45.455Z,16.62
2024-03-03T10:25:14.187Z,16.77
2024-03-03T10:27:48.440Z,16.61
2024-03-03T10:30:16.285Z,16.83
2024-03-03T10:32:44.285Z,16.90
2024-03-03T10:35:19.870Z,16.96
2024-03-03T10:37:53.242Z,16.96
2024-03-03T10:40:23.251Z,16.97
2024-03-03T10:42:49.979Z,17.19
2024-03-03T10:45:16.521Z,17.41
2024-03-03T10:47:43.527Z,17.55
2024-03-03T10:50:17.504Z,17.43
2024-03-03T10:52:44.832Z,17.29
2024-03-03T10:55:12.838Z,17.27
2024-03-03T10:57:40.264Z,17.58
2024-03-03T11:00:12.899Z,17.32
2024-03-03T11:02:40.617Z,17.07
2024-03-03T11:05:07.757Z,17.25
2024-03-03T11:07:38.051Z,17.09
2024-03-03T11:10:05.892Z,17.61
2024-03-03T11:12:37.460Z,18.05
2024-03-03T11:15:06.339Z,18.27
2024-03-03T11:17:36.590Z,18.27
2024-03-03T11:20:04.958Z,18.38
2024-03-03T11:22:38.427Z,18.52
2024-03-03T11:25:07.341Z,18.60
2024-03-03T11:27:40.458Z,18.66
2024-03-03T11:30:11.298Z,18.75
2024-03-03T11:32:40.386Z,18.97
2024-03-03T11:35:08.262Z,19.09
2024-03-03T11:37:34.815Z,19.22
2024-03-03T11:40:04.023Z,19.77
2024-03-03T11:42:33.705Z,20.23
2024-03-03T11:45:01.297Z,20.68
2024-03-03T11:47:33.056Z,21.05
2024-03-03T11:50:00.439Z,21.65
2024-03-03T11:52:44.160Z,22.27
2024-03-03T11:55:29.293Z,22.37
2024-03-03T11:57:59.943Z,22.05
2024-03-03T12:00:28.859Z,21.92
2024-03-03T12:02:57.501Z,21.33
2024-03-03T12:05:25.728Z,21.50
2024-03-03T12:07:54.124Z,21.26
2024-03-03T12:10:32.709Z,21.12
2024-03-03T12:13:02.482Z,20.82
2024-03-03T12:15:30.453Z,19.03
2024-03-03T12:17:58.794Z,18.85
2024-03-03T12:20:28.185Z,19.10
2024-03-03T12:22:55.657Z,19.80
2024-03-03T12:25:24.970Z,20.10
2024-03-03T12:27:59.111Z,19.66
2024-03-03T12:30:31.914Z,19.06
2024-03-03T12:32:59.615Z,18.62
2024-03-03T12:35:26.345Z,18.68
2024-03-03T12:37:54.579Z,18.18
2024-03-03T12:40:21.731Z,17.80
2024-03-03T12:42:52.018Z,18.15
2024-03-03T12:45:19.312Z,18.38
2024-03-03T12:47:45.900Z,18.71
2024-03-03T12:50:13.802Z,18.92
2024-03-03T12:52:42.061Z,19.02
2024-03-03T12:55:12.229Z,19.41
2024-03-03T12:57:40.721Z,19.34
2024-03-03T13:00:14.544Z,19.19
2024-03-03T13:02:43.674Z,19.45
2024-03-03T13:05:16.258Z,19.46
2024-03-03T13:07:51.761Z,19.59
2024-03-03T13:10:22.880Z,19.74
2024-03-03T13:12:54.208Z,19.12
2024-03-03T13:15:22.362Z,19.31
2024-03-03T13:18:17.244Z,19.49
2024-03-03T13:20:44.096Z,19.48
2024-03-03T13:23:20.474Z,19.47
2024-03-03T13:25:47.620Z,19.13
2024-03-03T13:28:16.018Z,18.90
2024-03-03T13:30:57.721Z,19.03
2024-03-03T13:33:24.954Z,18.99
2024-03-03T13:35:52.226Z,19.04
2024-03-03T13:38:18.944Z,19.15
2024-03-03T13:40:45.720Z,19.66
2024-03-03T13:43:12.370Z,19.78
2024-03-03T13:45:39.196Z,19.88
2024-03-03T13:48:11.422Z,19.93
2024-03-03T13:50:37.926Z,20.00
2024-03-03T13:53:05.270Z,20.00
2024-03-03T13:55:31.783Z,19.72
2024-03-03T13:57:58.432Z,19.80
2024-03-03T14:00:25.008Z,19.58
2024-03-03T14:02:52.301Z,19.60
2024-03-03T14:05:18.984Z,19.70
2024-03-03T14:07:45.655Z,19.78
2024-03-03T14:10:13.502Z,20.22
2024-03-03T14:12:40.076Z,20.41
2024-03-03T14:15:07.054Z,19.84
2024-03-03T14:17:34.416Z,19.96
2024-03-03T14:20:01.389Z,19.89
2024-03-03T14:22:27.987Z,19.79
2024-03-03T14:24:54.833Z,19.78
2024-03-03T14:27:21.353Z,19.70
2024-03-03T14:29:48.002Z,20.06
2024-03-03T14:32:15.029Z,19.88
2024-03-03T14:34:41.447Z,20.11
2024-03-03T14:37:08.828Z,20.33
2024-03-03T14:39:35.405Z,20.41
2024-03-03T14:42:01.827Z,20.66
2024-03-03T14:44:28.564Z,21.05
2024-03-03T14:46:55.190Z,20.76
2024-03-03T14:49:22.007Z,20.53
2024-03-03T14:51:48.594Z,20.75
2024-03-03T14:54:15.193Z,20.99
2024-03-03T14:56:41.840Z,21.21
2024-03-03T14:59:08.361Z,21.05
2024-03-03T15:01:34.923Z,21.06
2024-03-03T15:04:01.493Z,21.30
2024-03-03T15:06:28.017Z,21.15
2024-03-03T15:08:54.887Z,21.17
2024-03-03T15:11:21.341Z,21.18
2024-03-03T15:13:47.817Z,21.27
2024-03-03T15:16:14.373Z,21.24
2024-03-03T15:18:40.926Z,21.30
2024-03-03T15:21:07.402Z,21.43
2024-03-03T15:23:34.110Z,21.46
2024-03-03T15:26:00.751Z,21.06
2024-03-03T15:28:27.306Z,21.10
2024-03-03T15:30:54.173Z,21.29
2024-03-03T15:33:20.822Z,20.76
2024-03-03T15:35:48.230Z,20.99
2024-03-03T15:38:14.673Z,21.15
2024-03-03T15:40:41.273Z,21.43
2024-03-03T15:43:07.746Z,21.46
2024-03-03T15:45:36.757Z,21.47
2024-03-03T15:48:05.374Z,21.54
2024-03-03T15:50:31.998Z,20.61
2024-03-03T15:52:58.769Z,20.74
2024-03-03T15:55:25.388Z,20.28
2024-03-03T15:57:52.092Z,20.44
2024-03-03T16:00:18.834Z,20.28
2024-03-03T16:02:45.317Z,19.75
2024-03-03T16:05:11.991Z,19.84
2024-03-03T16:07:39.337Z,19.62
2024-03-03T16:10:07.887Z,19.74
2024-03-03T16:12:35.061Z,19.49
2024-03-03T16:15:02.081Z,19.44
2024-03-03T16:17:28.690Z,19.18
2024-03-03T16:19:55.489Z,18.96
2024-03-03T16:22:22.073Z,18.90
2024-03-03T16:24:48.840Z,18.74
2024-03-03T16:27:15.424Z,18.68
2024-03-03T16:29:41.884Z,18.61
2024-03-03T16:32:08.745Z,18.41
2024-03-03T16:34:35.408Z,18.28
2024-03-03T16:37:02.080Z,18.13
2024-03-03T16:39:28.671Z,18.01
2024-03-03T16:41:55.380Z,17.85
2024-03-03T16:44:23.521Z,17.72
2024-03-03T16:46:50.215Z,17.52
2024-03-03T16:49:16.738Z,17.31
2024-03-03T16:51:43.209Z,17.04
2024-03-03T16:54:09.711Z,16.75
2024-03-03T16:56:36.985Z,16.54
2024-03-03T16:59:03.741Z,16.35
2024-03-03T17:01:30.313Z,16.15
2024-03-03T17:03:56.897Z,15.94
2024-03-03T17:06:23.991Z,15.75
2024-03-03T17:08:51.472Z,15.77
2024-03-03T17:11:17.996Z,15.97
2024-03-03T17:13:44.518Z,15.82
2024-03-03T17:16:11.267Z,15.80
2024-03-03T17:18:37.778Z,15.68
2024-03-03T17:21:05.893Z,15.55
2024-03-03T17:23:32.755Z,15.41
2024-03-03T17:25:59.214Z,15.27
2024-03-03T17:28:25.862Z,15.10
2024-03-03T17:30:52.489Z,15.07
2024-03-03T17:33:19.277Z,14.97
2024-03-03T17:35:45.829Z,14.86
2024-03-03T17:38:12.332Z,14.79
2024-03-03T17:40:40.013Z,14.73
2024-03-03T17:43:06.770Z,14.62
2024-03-03T17:45:33.289Z,14.54
2024-03-03T17:47:59.991Z,14.45
2024-03-03T17:50:26.669Z,14.42
2024-03-03T17:52:53.625Z,14.50
2024-03-03T17:55:20.330Z,14.39
2024-03-03T17:57:47.966Z,15.01
2024-03-03T18:00:14.644Z,15.27
2024-03-03T18:02:41.760Z,15.32
2024-03-03T18:05:09.805Z,15.24
2024-03-03T18:07:36.544Z,15.19
2024-03-03T18:10:03.144Z,15.10
2024-03-03T18:12:30.879Z,14.98
2024-03-03T18:14:57.346Z,14.92
2024-03-03T18:17:23.938Z,14.82
2024-03-03T18:19:50.470Z,14.64
2024-03-03T18:22:17.212Z,14.39
2024-03-03T18:24:44.124Z,14.20
2024-03-03T18:27:10.623Z,14.14
2024-03-03T18:29:37.661Z,14.07
2024-03-03T18:32:04.565Z,13.86
2024-03-03T18:34:31.706Z,13.74
2024-03-03T18:36:58.651Z,13.57
2024-03-03T18:39:25.310Z,13.19
2024-03-03T18:41:52.472Z,13.02
2024-03-03T18:44:19.742Z,12.88
2024-03-03T18:46:46.443Z,12.78
2024-03-03T18:49:13.041Z,12.71
2024-03-03T18:51:39.546Z,12.54
2024-03-03T18:54:06.193Z,12.46
2024-03-03T18:56:32.681Z,12.39
2024-03-03T18:58:59.093Z,12.28
2024-03-03T19:01:25.727Z,12.31
2024-03-03T19:03:52.280Z,12.23
2024-03-03T19:06:18.838Z,12.20
2024-03-03T19:08:45.356Z,11.99
2024-03-03T19:11:12.010Z,11.95
2024-03-03T19:13:38.710Z,11.87
2024-03-03T19:16:07.346Z,11.81
2024-03-03T19:18:33.912Z,11.70
2024-03-03T19:21:00.851Z,11.62
2024-03-03T19:23:27.503Z,11.56
2024-03-03T19:25:53.998Z,11.52
2024-03-03T19:28:20.896Z,11.49
2024-03-03T19:30:48.214Z,11.48
2024-03-03T19:33:14.668Z,11.52
2024-03-03T19:35:42.526Z,11.66
2024-03-03T19:38:09.080Z,11.64
2024-03-03T19:40:35.691Z,11.61
2024-03-03T19:43:03.057Z,11.68
2024-03-03T19:45:29.662Z,11.69
2024-03-03T19:47:56.193Z,11.65
2024-03-03T19:50:22.688Z,11.62
2024-03-03T19:52:49.176Z,11.53
2024-03-03T19:55:15.698Z,11.41
2024-03-03T19:57:42.356Z,11.31
2024-03-03T20:00:15.773Z,11.24
2024-03-03T20:02:45.753Z,11.14
2024-03-03T20:05:12.218Z,11.04
2024-03-03T20:07:38.839Z,10.97
2024-03-03T20:10:08.044Z,10.93
2024-03-03T20:12:34.620Z,10.95
2024-03-03T20:15:03.074Z,10.83
2024-03-03T20:17:30.125Z,10.79
2024-03-03T20:19:57.364Z,10.72
2024-03-03T20:22:24.268Z,10.67
2024-03-03T20:24:50.900Z,10.59
2024-03-03T20:27:17.443Z,10.51
2024-03-03T20:29:44.017Z,10.46
2024-03-03T20:32:10.549Z,10.46
2024-03-03T20:34:37.079Z,10.38
2024-03-03T20:37:03.628Z,10.36
2024-03-03T20:39:30.961Z,10.22
2024-03-03T20:41:57.432Z,10.06
2024-03-03T20:44:23.949Z,9.92
2024-03-03T20:46:51.408Z,9.81
2024-03-03T20:49:21.339Z,9.67
2024-03-03T20:51:47.905Z,9.61
2024-03-03T20:54:16.278Z,9.45
2024-03-03T20:56:42.942Z,9.35
2024-03-03T20:59:10.869Z,9.32
2024-03-03T21:01:38.034Z,9.31
2024-03-03T21:04:04.969Z,9.25
2024-03-03T21:06:31.517Z,9.16
2024-03-03T21:08:58.734Z,9.17
2024-03-03T21:11:28.220Z,9.31
2024-03-03T21:13:58.781Z,9.48
2024-03-03T21:16:26.069Z,9.62
2024-03-03T21:18:52.639Z,9.92
2024-03-03T21:21:19.208Z,10.07
2024-03-03T21:23:45.770Z,10.19
2024-03-03T21:26:12.326Z,10.14
2024-03-03T21:28:38.851Z,9.97
2024-03-03T21:31:06.286Z,9.77
2024-03-03T21:33:32.906Z,9.53
2024-03-03T21:36:00.054Z,9.39
2024-03-03T21:38:26.668Z,9.19
2024-03-03T21:40:53.420Z,9.03
2024-03-03T21:43:19.999Z,8.88
2024-03-03T21:45:46.629Z,8.92
2024-03-03T21:48:13.537Z,9.01
2024-03-03T21:50:40.717Z,9.24
2024-03-03T21:53:07.321Z,9.38
2024-03-03T21:55:34.232Z,9.50
2024-03-03T21:58:01.098Z,9.54
2024-03-03T22:00:27.720Z,9.60
2024-03-03T22:02:54.289Z,9.59
2024-03-03T22:05:20.738Z,9.67
2024-03-03T22:07:47.311Z,9.66
2024-03-03T22:10:13.830Z,9.59
2024-03-03T22:12:40.623Z,9.37
2024-03-03T22:15:07.635Z,9.40
2024-03-03T22:17:34.784Z,9.36
2024-03-03T22:20:01.419Z,9.40
2024-03-03T22:22:27.940Z,9.51
2024-03-03T22:24:56.301Z,9.56
2024-03-03T22:27:22.895Z,9.58
2024-03-03T22:29:50.547Z,9.61
2024-03-03T22:32:17.035Z,9.61
2024-03-03T22:34:43.971Z,9.61
2024-03-03T22:37:11.168Z,9.63
2024-03-03T22:39:37.862Z,9.66
2024-03-03T22:42:06.035Z,9.63
2024-03-03T22:44:33.684Z,9.60
2024-03-03T22:47:00.668Z,9.58
2024-03-03T22:49:27.735Z,9.54
2024-03-03T22:51:54.407Z,9.50
2024-03-03T22:54:23.931Z,9.37
2024-03-03T22:56:50.424Z,9.33
2024-03-03T22:59:16.971Z,9.31
2024-03-03T23:01:43.618Z,9.37
2024-03-03T23:04:10.488Z,9.42
2024-03-03T23:06:37.010Z,9.37
2024-03-03T23:09:06.223Z,9.35
2024-03-03T23:11:36.434Z,9.31
2024-03-03T23:14:04.867Z,9.30
2024-03-03T23:16:31.385Z,9.28
2024-03-03T23:18:58.002Z,9.25
2024-03-03T23:21:24.480Z,9.22
2024-03-03T23:23:50.900Z,9.16
2024-03-03T23:26:17.452Z,9.15
2024-03-03T23:28:44.216Z,9.21
2024-03-03T23:31:10.800Z,9.21
2024-03-03T23:33:37.246Z,9.28
2024-03-03T23:36:03.966Z,9.30
2024-03-03T23:38:30.386Z,9.36
2024-03-03T23:40:56.878Z,9.41
2024-03-03T23:43:23.439Z,9.52
2024-03-03T23:45:49.971Z,9.56
2024-03-03T23:48:16.550Z,9.62
2024-03-03T23:50:43.177Z,9.60
2024-03-03T23:53:10.019Z,9.60
2024-03-03T23:55:37.319Z,9.63
2024-03-03T23:58:04.181Z,9.57
